sensor_id;sensor_type;location;lat;lon;timestamp;P1;durP1;ratioP1;P2;durP2;ratioP2
53036;SDS011;38924;52.134;4.666;2023-12-04T00:01:21;25.00;;;13.80;;
53036;SDS011;38924;52.134;4.666;2023-12-04T00:03:47;26.75;;;13.57;;
53036;SDS011;38924;52.134;4.666;2023-12-04T00:06:13;26.45;;;11.80;;
53036;SDS011;38924;52.134;4.666;2023-12-04T00:08:39;25.48;;;13.48;;
53036;SDS011;38924;52.134;4.666;2023-12-04T00:11:07;25.17;;;12.77;;
53036;SDS011;38924;52.134;4.666;2023-12-04T00:13:33;28.15;;;12.63;;
53036;SDS011;38924;52.134;4.666;2023-12-04T00:16:00;26.45;;;11.77;;
53036;SDS011;38924;52.134;4.666;2023-12-04T00:18:25;24.63;;;13.23;;
53036;SDS011;38924;52.134;4.666;2023-12-04T00:20:51;27.00;;;14.20;;
53036;SDS011;38924;52.134;4.666;2023-12-04T00:23:17;25.05;;;12.95;;
53036;SDS011;38924;52.134;4.666;2023-12-04T00:25:43;28.88;;;12.75;;
53036;SDS011;38924;52.134;4.666;2023-12-04T00:28:09;26.45;;;13.40;;
53036;SDS011;38924;52.134;4.666;2023-12-04T00:30:34;26.65;;;13.68;;
53036;SDS011;38924;52.134;4.666;2023-12-04T00:33:00;26.90;;;14.30;;
53036;SDS011;38924;52.134;4.666;2023-12-04T00:35:26;26.55;;;13.43;;
53036;SDS011;38924;52.134;4.666;2023-12-04T00:37:51;31.88;;;13.18;;
53036;SDS011;38924;52.134;4.666;2023-12-04T00:40:17;23.38;;;12.57;;
53036;SDS011;38924;52.134;4.666;2023-12-04T00:42:43;29.48;;;13.60;;
53036;SDS011;38924;52.134;4.666;2023-12-04T00:45:08;26.83;;;14.18;;
53036;SDS011;38924;52.134;4.666;2023-12-04T00:47:34;27.73;;;12.95;;
53036;SDS011;38924;52.134;4.666;2023-12-04T00:50:00;31.30;;;15.23;;
53036;SDS011;38924;52.134;4.666;2023-12-04T00:52:25;26.55;;;13.80;;
53036;SDS011;38924;52.134;4.666;2023-12-04T00:54:51;25.08;;;13.68;;
53036;SDS011;38924;52.134;4.666;2023-12-04T00:57:17;27.90;;;13.30;;
53036;SDS011;38924;52.134;4.666;2023-12-04T00:59:42;28.70;;;14.73;;
53036;SDS011;38924;52.134;4.666;2023-12-04T01:02:08;26.17;;;13.38;;
53036;SDS011;38924;52.134;4.666;2023-12-04T01:04:34;26.77;;;13.82;;
53036;SDS011;38924;52.134;4.666;2023-12-04T01:06:59;24.67;;;13.27;;
53036;SDS011;38924;52.134;4.666;2023-12-04T01:09:25;27.05;;;13.82;;
53036;SDS011;38924;52.134;4.666;2023-12-04T01:11:54;30.92;;;15.75;;
53036;SDS011;38924;52.134;4.666;2023-12-04T01:14:20;26.38;;;12.52;;
53036;SDS011;38924;52.134;4.666;2023-12-04T01:16:46;32.53;;;13.55;;
53036;SDS011;38924;52.134;4.666;2023-12-04T01:19:11;25.75;;;14.00;;
53036;SDS011;38924;52.134;4.666;2023-12-04T01:21:37;28.05;;;12.35;;
53036;SDS011;38924;52.134;4.666;2023-12-04T01:24:03;29.48;;;14.05;;
53036;SDS011;38924;52.134;4.666;2023-12-04T01:26:28;27.85;;;14.68;;
53036;SDS011;38924;52.134;4.666;2023-12-04T01:28:55;30.95;;;13.05;;
53036;SDS011;38924;52.134;4.666;2023-12-04T01:31:20;26.77;;;14.68;;
53036;SDS011;38924;52.134;4.666;2023-12-04T01:33:46;25.73;;;12.75;;
53036;SDS011;38924;52.134;4.666;2023-12-04T01:36:12;27.75;;;13.13;;
53036;SDS011;38924;52.134;4.666;2023-12-04T01:38:38;25.02;;;12.25;;
53036;SDS011;38924;52.134;4.666;2023-12-04T01:41:06;28.15;;;13.48;;
53036;SDS011;38924;52.134;4.666;2023-12-04T01:43:35;26.48;;;12.90;;
53036;SDS011;38924;52.134;4.666;2023-12-04T01:46:01;25.23;;;11.95;;
53036;SDS011;38924;52.134;4.666;2023-12-04T01:48:26;25.25;;;12.95;;
53036;SDS011;38924;52.134;4.666;2023-12-04T01:50:52;27.05;;;12.98;;
53036;SDS011;38924;52.134;4.666;2023-12-04T01:53:18;23.17;;;12.82;;
53036;SDS011;38924;52.134;4.666;2023-12-04T01:55:44;23.85;;;12.05;;
53036;SDS011;38924;52.134;4.666;2023-12-04T01:58:10;23.13;;;11.45;;
53036;SDS011;38924;52.134;4.666;2023-12-04T02:00:36;24.00;;;12.02;;
53036;SDS011;38924;52.134;4.666;2023-12-04T02:03:02;22.13;;;11.82;;
53036;SDS011;38924;52.134;4.666;2023-12-04T02:05:28;26.08;;;13.75;;
53036;SDS011;38924;52.134;4.666;2023-12-04T02:07:54;23.08;;;12.50;;
53036;SDS011;38924;52.134;4.666;2023-12-04T02:10:21;23.65;;;11.40;;
53036;SDS011;38924;52.134;4.666;2023-12-04T02:12:48;20.55;;;11.18;;
53036;SDS011;38924;52.134;4.666;2023-12-04T02:15:13;23.77;;;11.93;;
53036;SDS011;38924;52.134;4.666;2023-12-04T02:17:45;25.52;;;13.52;;
53036;SDS011;38924;52.134;4.666;2023-12-04T02:20:14;24.55;;;11.70;;
53036;SDS011;38924;52.134;4.666;2023-12-04T02:22:40;22.20;;;12.10;;
53036;SDS011;38924;52.134;4.666;2023-12-04T02:25:06;25.30;;;12.10;;
53036;SDS011;38924;52.134;4.666;2023-12-04T02:27:34;26.15;;;12.93;;
53036;SDS011;38924;52.134;4.666;2023-12-04T02:30:02;24.77;;;12.65;;
53036;SDS011;38924;52.134;4.666;2023-12-04T02:32:34;26.20;;;11.43;;
53036;SDS011;38924;52.134;4.666;2023-12-04T02:35:02;23.92;;;12.32;;
53036;SDS011;38924;52.134;4.666;2023-12-04T02:37:29;20.23;;;10.63;;
53036;SDS011;38924;52.134;4.666;2023-12-04T02:39:55;23.00;;;11.13;;
53036;SDS011;38924;52.134;4.666;2023-12-04T02:42:24;24.60;;;11.75;;
53036;SDS011;38924;52.134;4.666;2023-12-04T02:44:50;21.00;;;11.10;;
53036;SDS011;38924;52.134;4.666;2023-12-04T02:47:16;21.52;;;11.45;;
53036;SDS011;38924;52.134;4.666;2023-12-04T02:49:42;21.25;;;11.75;;
53036;SDS011;38924;52.134;4.666;2023-12-04T02:52:07;20.42;;;11.15;;
53036;SDS011;38924;52.134;4.666;2023-12-04T02:54:33;25.67;;;12.75;;
53036;SDS011;38924;52.134;4.666;2023-12-04T02:56:59;23.00;;;11.98;;
53036;SDS011;38924;52.134;4.666;2023-12-04T02:59:24;19.15;;;9.73;;
53036;SDS011;38924;52.134;4.666;2023-12-04T03:01:50;19.15;;;10.35;;
53036;SDS011;38924;52.134;4.666;2023-12-04T03:04:16;19.98;;;10.88;;
53036;SDS011;38924;52.134;4.666;2023-12-04T03:06:41;19.90;;;10.77;;
53036;SDS011;38924;52.134;4.666;2023-12-04T03:09:07;22.20;;;11.93;;
53036;SDS011;38924;52.134;4.666;2023-12-04T03:11:33;19.25;;;11.20;;
53036;SDS011;38924;52.134;4.666;2023-12-04T03:13:59;24.23;;;11.63;;
53036;SDS011;38924;52.134;4.666;2023-12-04T03:16:25;21.35;;;11.43;;
53036;SDS011;38924;52.134;4.666;2023-12-04T03:18:51;26.88;;;11.40;;
53036;SDS011;38924;52.134;4.666;2023-12-04T03:21:19;19.83;;;10.15;;
53036;SDS011;38924;52.134;4.666;2023-12-04T03:23:45;21.88;;;12.25;;
53036;SDS011;38924;52.134;4.666;2023-12-04T03:26:10;19.20;;;9.48;;
53036;SDS011;38924;52.134;4.666;2023-12-04T03:28:37;20.98;;;10.95;;
53036;SDS011;38924;52.134;4.666;2023-12-04T03:31:03;20.67;;;10.80;;
53036;SDS011;38924;52.134;4.666;2023-12-04T03:33:29;22.67;;;11.45;;
53036;SDS011;38924;52.134;4.666;2023-12-04T03:35:54;18.60;;;10.98;;
53036;SDS011;38924;52.134;4.666;2023-12-04T03:38:20;21.85;;;10.95;;
53036;SDS011;38924;52.134;4.666;2023-12-04T03:40:46;18.95;;;10.88;;
53036;SDS011;38924;52.134;4.666;2023-12-04T03:43:11;20.85;;;11.20;;
53036;SDS011;38924;52.134;4.666;2023-12-04T03:45:37;18.90;;;10.18;;
53036;SDS011;38924;52.134;4.666;2023-12-04T03:48:05;19.75;;;9.70;;
53036;SDS011;38924;52.134;4.666;2023-12-04T03:50:31;18.52;;;10.00;;
53036;SDS011;38924;52.134;4.666;2023-12-04T03:52:57;17.20;;;9.93;;
53036;SDS011;38924;52.134;4.666;2023-12-04T03:55:22;17.58;;;9.98;;
53036;SDS011;38924;52.134;4.666;2023-12-04T03:57:48;19.73;;;10.82;;
53036;SDS011;38924;52.134;4.666;2023-12-04T04:00:14;18.10;;;9.82;;
53036;SDS011;38924;52.134;4.666;2023-12-04T04:02:41;19.08;;;9.57;;
53036;SDS011;38924;52.134;4.666;2023-12-04T04:05:07;21.20;;;10.38;;
53036;SDS011;38924;52.134;4.666;2023-12-04T04:07:32;20.45;;;11.10;;
53036;SDS011;38924;52.134;4.666;2023-12-04T04:09:58;20.25;;;10.45;;
53036;SDS011;38924;52.134;4.666;2023-12-04T04:12:23;16.73;;;10.27;;
53036;SDS011;38924;52.134;4.666;2023-12-04T04:14:49;20.02;;;9.35;;
53036;SDS011;38924;52.134;4.666;2023-12-04T04:17:15;23.00;;;10.45;;
53036;SDS011;38924;52.134;4.666;2023-12-04T04:19:41;17.48;;;9.82;;
53036;SDS011;38924;52.134;4.666;2023-12-04T04:22:06;16.48;;;9.32;;
53036;SDS011;38924;52.134;4.666;2023-12-04T04:24:32;17.02;;;10.45;;
53036;SDS011;38924;52.134;4.666;2023-12-04T04:26:58;19.88;;;9.30;;
53036;SDS011;38924;52.134;4.666;2023-12-04T04:29:23;15.23;;;8.80;;
53036;SDS011;38924;52.134;4.666;2023-12-04T04:31:50;16.65;;;8.75;;
53036;SDS011;38924;52.134;4.666;2023-12-04T04:34:15;18.60;;;9.82;;
53036;SDS011;38924;52.134;4.666;2023-12-04T04:36:42;15.80;;;9.35;;
53036;SDS011;38924;52.134;4.666;2023-12-04T04:39:08;16.02;;;9.02;;
53036;SDS011;38924;52.134;4.666;2023-12-04T04:41:33;15.13;;;8.02;;
53036;SDS011;38924;52.134;4.666;2023-12-04T04:43:59;18.40;;;9.40;;
53036;SDS011;38924;52.134;4.666;2023-12-04T04:46:28;16.98;;;8.75;;
53036;SDS011;38924;52.134;4.666;2023-12-04T04:48:53;18.15;;;9.70;;
53036;SDS011;38924;52.134;4.666;2023-12-04T04:51:19;15.98;;;9.10;;
53036;SDS011;38924;52.134;4.666;2023-12-04T04:53:45;19.10;;;9.95;;
53036;SDS011;38924;52.134;4.666;2023-12-04T04:56:10;15.48;;;8.35;;
53036;SDS011;38924;52.134;4.666;2023-12-04T04:58:36;16.27;;;8.95;;
53036;SDS011;38924;52.134;4.666;2023-12-04T05:01:02;19.90;;;10.77;;
53036;SDS011;38924;52.134;4.666;2023-12-04T05:03:27;16.77;;;9.57;;
53036;SDS011;38924;52.134;4.666;2023-12-04T05:05:53;19.58;;;9.80;;
53036;SDS011;38924;52.134;4.666;2023-12-04T05:08:19;14.68;;;8.02;;
53036;SDS011;38924;52.134;4.666;2023-12-04T05:10:44;18.08;;;8.60;;
53036;SDS011;38924;52.134;4.666;2023-12-04T05:13:10;14.88;;;8.45;;
53036;SDS011;38924;52.134;4.666;2023-12-04T05:15:36;16.00;;;9.07;;
53036;SDS011;38924;52.134;4.666;2023-12-04T05:18:01;15.95;;;9.25;;
53036;SDS011;38924;52.134;4.666;2023-12-04T05:20:27;16.55;;;9.45;;
53036;SDS011;38924;52.134;4.666;2023-12-04T05:22:53;16.00;;;9.02;;
53036;SDS011;38924;52.134;4.666;2023-12-04T05:25:18;14.25;;;9.07;;
53036;SDS011;38924;52.134;4.666;2023-12-04T05:27:44;15.68;;;8.35;;
53036;SDS011;38924;52.134;4.666;2023-12-04T05:30:11;17.25;;;8.75;;
53036;SDS011;38924;52.134;4.666;2023-12-04T05:32:37;19.83;;;9.60;;
53036;SDS011;38924;52.134;4.666;2023-12-04T05:35:02;18.17;;;10.07;;
53036;SDS011;38924;52.134;4.666;2023-12-04T05:37:28;17.98;;;9.95;;
53036;SDS011;38924;52.134;4.666;2023-12-04T05:39:54;18.63;;;9.77;;
53036;SDS011;38924;52.134;4.666;2023-12-04T05:42:20;17.13;;;8.55;;
53036;SDS011;38924;52.134;4.666;2023-12-04T05:44:45;21.67;;;9.30;;
53036;SDS011;38924;52.134;4.666;2023-12-04T05:47:11;17.13;;;9.75;;
53036;SDS011;38924;52.134;4.666;2023-12-04T05:49:37;14.77;;;7.68;;
53036;SDS011;38924;52.134;4.666;2023-12-04T05:52:02;16.75;;;8.80;;
53036;SDS011;38924;52.134;4.666;2023-12-04T05:54:28;15.75;;;8.23;;
53036;SDS011;38924;52.134;4.666;2023-12-04T05:56:54;13.45;;;9.05;;
53036;SDS011;38924;52.134;4.666;2023-12-04T05:59:19;16.08;;;8.77;;
53036;SDS011;38924;52.134;4.666;2023-12-04T06:01:45;16.17;;;8.30;;
53036;SDS011;38924;52.134;4.666;2023-12-04T06:04:11;16.20;;;8.82;;
53036;SDS011;38924;52.134;4.666;2023-12-04T06:06:36;16.42;;;9.15;;
53036;SDS011;38924;52.134;4.666;2023-12-04T06:09:02;18.95;;;8.50;;
53036;SDS011;38924;52.134;4.666;2023-12-04T06:11:27;17.77;;;9.18;;
53036;SDS011;38924;52.134;4.666;2023-12-04T06:13:53;16.45;;;8.27;;
53036;SDS011;38924;52.134;4.666;2023-12-04T06:16:19;20.35;;;10.07;;
53036;SDS011;38924;52.134;4.666;2023-12-04T06:18:44;16.05;;;9.50;;
53036;SDS011;38924;52.134;4.666;2023-12-04T06:21:10;18.45;;;9.82;;
53036;SDS011;38924;52.134;4.666;2023-12-04T06:23:36;17.38;;;9.02;;
53036;SDS011;38924;52.134;4.666;2023-12-04T06:26:02;17.73;;;8.27;;
53036;SDS011;38924;52.134;4.666;2023-12-04T06:28:27;17.20;;;9.85;;
53036;SDS011;38924;52.134;4.666;2023-12-04T06:30:53;16.13;;;8.73;;
53036;SDS011;38924;52.134;4.666;2023-12-04T06:33:19;16.60;;;9.10;;
53036;SDS011;38924;52.134;4.666;2023-12-04T06:35:45;15.65;;;9.20;;
53036;SDS011;38924;52.134;4.666;2023-12-04T06:38:12;15.63;;;8.60;;
53036;SDS011;38924;52.134;4.666;2023-12-04T06:40:39;16.45;;;9.45;;
53036;SDS011;38924;52.134;4.666;2023-12-04T06:43:05;20.38;;;9.07;;
53036;SDS011;38924;52.134;4.666;2023-12-04T06:45:31;16.50;;;9.48;;
53036;SDS011;38924;52.134;4.666;2023-12-04T06:47:57;16.50;;;9.45;;
53036;SDS011;38924;52.134;4.666;2023-12-04T06:50:24;17.25;;;8.27;;
53036;SDS011;38924;52.134;4.666;2023-12-04T06:52:49;16.58;;;9.80;;
53036;SDS011;38924;52.134;4.666;2023-12-04T06:55:15;20.20;;;9.35;;
53036;SDS011;38924;52.134;4.666;2023-12-04T06:57:41;17.02;;;8.98;;
53036;SDS011;38924;52.134;4.666;2023-12-04T07:00:07;14.52;;;8.18;;
53036;SDS011;38924;52.134;4.666;2023-12-04T07:02:33;14.73;;;8.88;;
53036;SDS011;38924;52.134;4.666;2023-12-04T07:04:59;19.58;;;9.30;;
53036;SDS011;38924;52.134;4.666;2023-12-04T07:07:25;16.60;;;9.43;;
53036;SDS011;38924;52.134;4.666;2023-12-04T07:09:50;19.95;;;9.65;;
53036;SDS011;38924;52.134;4.666;2023-12-04T07:12:16;20.08;;;10.60;;
53036;SDS011;38924;52.134;4.666;2023-12-04T07:14:42;17.25;;;9.55;;
53036;SDS011;38924;52.134;4.666;2023-12-04T07:17:07;15.15;;;9.05;;
53036;SDS011;38924;52.134;4.666;2023-12-04T07:19:33;14.45;;;8.35;;
53036;SDS011;38924;52.134;4.666;2023-12-04T07:21:59;14.68;;;8.77;;
53036;SDS011;38924;52.134;4.666;2023-12-04T07:24:24;16.58;;;8.07;;
53036;SDS011;38924;52.134;4.666;2023-12-04T07:26:51;15.00;;;8.85;;
53036;SDS011;38924;52.134;4.666;2023-12-04T07:29:17;19.10;;;9.50;;
53036;SDS011;38924;52.134;4.666;2023-12-04T07:31:43;13.60;;;8.10;;
53036;SDS011;38924;52.134;4.666;2023-12-04T07:34:09;15.77;;;8.85;;
53036;SDS011;38924;52.134;4.666;2023-12-04T07:36:41;14.52;;;8.18;;
53036;SDS011;38924;52.134;4.666;2023-12-04T07:39:08;12.93;;;7.95;;
53036;SDS011;38924;52.134;4.666;2023-12-04T07:41:34;14.52;;;8.55;;
53036;SDS011;38924;52.134;4.666;2023-12-04T07:44:00;14.55;;;8.00;;
53036;SDS011;38924;52.134;4.666;2023-12-04T07:46:26;15.80;;;8.27;;
53036;SDS011;38924;52.134;4.666;2023-12-04T07:48:51;12.75;;;7.50;;
53036;SDS011;38924;52.134;4.666;2023-12-04T07:51:17;15.02;;;7.80;;
53036;SDS011;38924;52.134;4.666;2023-12-04T07:53:43;11.82;;;7.68;;
53036;SDS011;38924;52.134;4.666;2023-12-04T07:56:09;17.42;;;8.20;;
53036;SDS011;38924;52.134;4.666;2023-12-04T07:58:35;16.13;;;7.40;;
53036;SDS011;38924;52.134;4.666;2023-12-04T08:01:00;16.40;;;7.43;;
53036;SDS011;38924;52.134;4.666;2023-12-04T08:03:26;14.48;;;8.85;;
53036;SDS011;38924;52.134;4.666;2023-12-04T08:05:52;14.15;;;8.43;;
53036;SDS011;38924;52.134;4.666;2023-12-04T08:08:18;14.82;;;8.13;;
53036;SDS011;38924;52.134;4.666;2023-12-04T08:10:44;13.10;;;8.23;;
53036;SDS011;38924;52.134;4.666;2023-12-04T08:13:10;18.75;;;7.50;;
53036;SDS011;38924;52.134;4.666;2023-12-04T08:15:35;12.73;;;7.72;;
53036;SDS011;38924;52.134;4.666;2023-12-04T08:18:01;13.30;;;7.28;;
53036;SDS011;38924;52.134;4.666;2023-12-04T08:20:28;13.50;;;8.10;;
53036;SDS011;38924;52.134;4.666;2023-12-04T08:22:53;14.38;;;8.65;;
53036;SDS011;38924;52.134;4.666;2023-12-04T08:25:20;14.38;;;8.60;;
53036;SDS011;38924;52.134;4.666;2023-12-04T08:27:46;15.27;;;8.95;;
53036;SDS011;38924;52.134;4.666;2023-12-04T08:30:11;13.10;;;7.57;;
53036;SDS011;38924;52.134;4.666;2023-12-04T08:32:37;12.57;;;7.75;;
53036;SDS011;38924;52.134;4.666;2023-12-04T08:35:03;13.05;;;7.65;;
53036;SDS011;38924;52.134;4.666;2023-12-04T08:37:30;12.77;;;7.22;;
53036;SDS011;38924;52.134;4.666;2023-12-04T08:39:56;16.88;;;8.20;;
53036;SDS011;38924;52.134;4.666;2023-12-04T08:42:22;17.27;;;7.63;;
53036;SDS011;38924;52.134;4.666;2023-12-04T08:44:48;14.35;;;7.75;;
53036;SDS011;38924;52.134;4.666;2023-12-04T08:47:13;12.88;;;7.30;;
53036;SDS011;38924;52.134;4.666;2023-12-04T08:49:39;12.30;;;7.47;;
53036;SDS011;38924;52.134;4.666;2023-12-04T08:52:06;12.15;;;7.35;;
53036;SDS011;38924;52.134;4.666;2023-12-04T08:54:32;12.63;;;7.05;;
53036;SDS011;38924;52.134;4.666;2023-12-04T08:57:00;13.75;;;8.07;;
53036;SDS011;38924;52.134;4.666;2023-12-04T08:59:26;9.50;;;6.15;;
53036;SDS011;38924;52.134;4.666;2023-12-04T09:01:52;12.15;;;6.47;;
53036;SDS011;38924;52.134;4.666;2023-12-04T09:04:17;13.20;;;7.60;;
53036;SDS011;38924;52.134;4.666;2023-12-04T09:06:43;10.50;;;6.68;;
53036;SDS011;38924;52.134;4.666;2023-12-04T09:09:09;13.20;;;7.47;;
53036;SDS011;38924;52.134;4.666;2023-12-04T09:11:34;12.27;;;6.85;;
53036;SDS011;38924;52.134;4.666;2023-12-04T09:14:00;12.52;;;6.47;;
53036;SDS011;38924;52.134;4.666;2023-12-04T09:16:25;12.93;;;7.13;;
53036;SDS011;38924;52.134;4.666;2023-12-04T09:18:51;12.10;;;6.93;;
53036;SDS011;38924;52.134;4.666;2023-12-04T09:21:18;9.90;;;6.53;;
53036;SDS011;38924;52.134;4.666;2023-12-04T09:23:44;12.73;;;7.20;;
53036;SDS011;38924;52.134;4.666;2023-12-04T09:26:15;10.50;;;6.32;;
53036;SDS011;38924;52.134;4.666;2023-12-04T09:28:41;9.75;;;6.20;;
53036;SDS011;38924;52.134;4.666;2023-12-04T09:31:08;9.23;;;6.07;;
53036;SDS011;38924;52.134;4.666;2023-12-04T09:33:33;9.52;;;5.90;;
53036;SDS011;38924;52.134;4.666;2023-12-04T09:35:59;13.20;;;6.20;;
53036;SDS011;38924;52.134;4.666;2023-12-04T09:38:25;12.23;;;6.22;;
53036;SDS011;38924;52.134;4.666;2023-12-04T09:40:50;10.02;;;6.15;;
53036;SDS011;38924;52.134;4.666;2023-12-04T09:43:17;8.55;;;5.85;;
53036;SDS011;38924;52.134;4.666;2023-12-04T09:45:46;12.60;;;6.25;;
53036;SDS011;38924;52.134;4.666;2023-12-04T09:48:12;11.07;;;6.07;;
53036;SDS011;38924;52.134;4.666;2023-12-04T09:50:38;10.23;;;5.95;;
53036;SDS011;38924;52.134;4.666;2023-12-04T09:53:04;11.73;;;6.40;;
53036;SDS011;38924;52.134;4.666;2023-12-04T09:55:31;10.32;;;5.85;;
53036;SDS011;38924;52.134;4.666;2023-12-04T09:57:57;10.23;;;6.05;;
53036;SDS011;38924;52.134;4.666;2023-12-04T10:00:23;10.15;;;6.00;;
53036;SDS011;38924;52.134;4.666;2023-12-04T10:02:52;11.50;;;6.30;;
53036;SDS011;38924;52.134;4.666;2023-12-04T10:05:18;10.32;;;6.05;;
53036;SDS011;38924;52.134;4.666;2023-12-04T10:07:43;9.38;;;5.13;;
53036;SDS011;38924;52.134;4.666;2023-12-04T10:10:09;8.35;;;5.20;;
53036;SDS011;38924;52.134;4.666;2023-12-04T10:12:35;8.18;;;5.38;;
53036;SDS011;38924;52.134;4.666;2023-12-04T10:15:04;8.43;;;5.40;;
53036;SDS011;38924;52.134;4.666;2023-12-04T10:17:36;14.02;;;6.32;;
53036;SDS011;38924;52.134;4.666;2023-12-04T10:20:15;14.27;;;6.32;;
53036;SDS011;38924;52.134;4.666;2023-12-04T10:23:00;8.73;;;5.63;;
53036;SDS011;38924;52.134;4.666;2023-12-04T10:25:30;11.23;;;6.55;;
53036;SDS011;38924;52.134;4.666;2023-12-04T10:28:11;7.93;;;4.93;;
53036;SDS011;38924;52.134;4.666;2023-12-04T10:30:37;10.10;;;5.35;;
53036;SDS011;38924;52.134;4.666;2023-12-04T10:33:03;8.95;;;5.57;;
53036;SDS011;38924;52.134;4.666;2023-12-04T10:35:30;8.77;;;4.95;;
53036;SDS011;38924;52.134;4.666;2023-12-04T10:37:56;8.35;;;5.32;;
53036;SDS011;38924;52.134;4.666;2023-12-04T10:40:23;9.48;;;5.70;;
53036;SDS011;38924;52.134;4.666;2023-12-04T10:42:48;10.45;;;6.03;;
53036;SDS011;38924;52.134;4.666;2023-12-04T10:45:17;7.90;;;5.20;;
53036;SDS011;38924;52.134;4.666;2023-12-04T10:47:43;8.00;;;5.53;;
53036;SDS011;38924;52.134;4.666;2023-12-04T10:50:09;10.30;;;5.35;;
53036;SDS011;38924;52.134;4.666;2023-12-04T10:52:35;9.88;;;6.05;;
53036;SDS011;38924;52.134;4.666;2023-12-04T10:55:05;9.82;;;5.47;;
53036;SDS011;38924;52.134;4.666;2023-12-04T10:57:35;10.40;;;5.43;;
53036;SDS011;38924;52.134;4.666;2023-12-04T11:00:03;8.43;;;4.72;;
53036;SDS011;38924;52.134;4.666;2023-12-04T11:02:29;10.05;;;5.72;;
53036;SDS011;38924;52.134;4.666;2023-12-04T11:04:59;10.65;;;5.30;;
53036;SDS011;38924;52.134;4.666;2023-12-04T11:07:29;8.77;;;5.47;;
53036;SDS011;38924;52.134;4.666;2023-12-04T11:09:56;8.73;;;5.53;;
53036;SDS011;38924;52.134;4.666;2023-12-04T11:12:24;9.43;;;5.68;;
53036;SDS011;38924;52.134;4.666;2023-12-04T11:14:52;7.53;;;5.43;;
53036;SDS011;38924;52.134;4.666;2023-12-04T11:17:19;9.35;;;4.72;;
53036;SDS011;38924;52.134;4.666;2023-12-04T11:22:16;15.77;;;6.18;;
53036;SDS011;38924;52.134;4.666;2023-12-04T11:24:46;7.95;;;5.15;;
53036;SDS011;38924;52.134;4.666;2023-12-04T11:27:16;8.40;;;5.65;;
53036;SDS011;38924;52.134;4.666;2023-12-04T11:29:45;10.00;;;6.03;;
53036;SDS011;38924;52.134;4.666;2023-12-04T11:32:17;8.80;;;5.30;;
53036;SDS011;38924;52.134;4.666;2023-12-04T11:35:06;9.57;;;5.38;;
53036;SDS011;38924;52.134;4.666;2023-12-04T11:37:29;9.13;;;5.07;;
53036;SDS011;38924;52.134;4.666;2023-12-04T11:39:55;13.63;;;5.68;;
53036;SDS011;38924;52.134;4.666;2023-12-04T11:42:22;8.32;;;5.32;;
53036;SDS011;38924;52.134;4.666;2023-12-04T11:44:49;8.93;;;5.93;;
53036;SDS011;38924;52.134;4.666;2023-12-04T11:47:15;9.75;;;5.60;;
53036;SDS011;38924;52.134;4.666;2023-12-04T11:49:41;8.27;;;4.65;;
53036;SDS011;38924;52.134;4.666;2023-12-04T11:52:06;7.45;;;5.35;;
53036;SDS011;38924;52.134;4.666;2023-12-04T11:59:42;9.90;;;5.20;;
53036;SDS011;38924;52.134;4.666;2023-12-04T12:02:09;12.07;;;6.03;;
53036;SDS011;38924;52.134;4.666;2023-12-04T12:04:35;12.43;;;6.35;;
53036;SDS011;38924;52.134;4.666;2023-12-04T12:07:04;8.05;;;4.97;;
53036;SDS011;38924;52.134;4.666;2023-12-04T12:09:30;11.77;;;6.57;;
53036;SDS011;38924;52.134;4.666;2023-12-04T12:11:56;8.88;;;5.78;;
53036;SDS011;38924;52.134;4.666;2023-12-04T12:14:22;9.15;;;5.53;;
53036;SDS011;38924;52.134;4.666;2023-12-04T12:16:48;9.13;;;6.10;;
53036;SDS011;38924;52.134;4.666;2023-12-04T12:19:18;17.20;;;6.50;;
53036;SDS011;38924;52.134;4.666;2023-12-04T12:21:44;14.68;;;5.88;;
53036;SDS011;38924;52.134;4.666;2023-12-04T12:24:11;10.07;;;5.70;;
53036;SDS011;38924;52.134;4.666;2023-12-04T12:26:37;10.20;;;6.53;;
53036;SDS011;38924;52.134;4.666;2023-12-04T12:29:03;9.98;;;6.15;;
53036;SDS011;38924;52.134;4.666;2023-12-04T12:31:28;9.15;;;5.60;;
53036;SDS011;38924;52.134;4.666;2023-12-04T12:33:55;11.07;;;5.97;;
53036;SDS011;38924;52.134;4.666;2023-12-04T12:36:21;15.60;;;6.35;;
53036;SDS011;38924;52.134;4.666;2023-12-04T12:38:47;9.45;;;6.45;;
53036;SDS011;38924;52.134;4.666;2023-12-04T12:41:18;13.45;;;8.05;;
53036;SDS011;38924;52.134;4.666;2023-12-04T12:43:44;11.77;;;6.78;;
53036;SDS011;38924;52.134;4.666;2023-12-04T12:46:10;11.88;;;7.07;;
53036;SDS011;38924;52.134;4.666;2023-12-04T12:48:38;13.40;;;7.93;;
53036;SDS011;38924;52.134;4.666;2023-12-04T12:51:04;12.60;;;7.75;;
53036;SDS011;38924;52.134;4.666;2023-12-04T12:53:32;19.23;;;8.73;;
53036;SDS011;38924;52.134;4.666;2023-12-04T12:55:59;18.80;;;7.57;;
53036;SDS011;38924;52.134;4.666;2023-12-04T12:58:25;13.00;;;7.95;;
53036;SDS011;38924;52.134;4.666;2023-12-04T13:00:51;13.18;;;8.27;;
53036;SDS011;38924;52.134;4.666;2023-12-04T13:03:17;19.40;;;9.43;;
53036;SDS011;38924;52.134;4.666;2023-12-04T13:05:42;13.77;;;8.27;;
53036;SDS011;38924;52.134;4.666;2023-12-04T13:08:09;16.65;;;9.38;;
53036;SDS011;38924;52.134;4.666;2023-12-04T13:10:37;13.13;;;8.52;;
53036;SDS011;38924;52.134;4.666;2023-12-04T13:13:02;14.73;;;9.02;;
53036;SDS011;38924;52.134;4.666;2023-12-04T13:15:28;17.60;;;10.10;;
53036;SDS011;38924;52.134;4.666;2023-12-04T13:17:54;15.88;;;9.10;;
53036;SDS011;38924;52.134;4.666;2023-12-04T13:20:20;14.73;;;8.98;;
53036;SDS011;38924;52.134;4.666;2023-12-04T13:22:45;13.85;;;8.45;;
53036;SDS011;38924;52.134;4.666;2023-12-04T13:25:14;15.52;;;8.98;;
53036;SDS011;38924;52.134;4.666;2023-12-04T13:27:40;14.85;;;9.05;;
53036;SDS011;38924;52.134;4.666;2023-12-04T13:30:06;16.10;;;9.63;;
53036;SDS011;38924;52.134;4.666;2023-12-04T13:32:32;15.45;;;9.15;;
53036;SDS011;38924;52.134;4.666;2023-12-04T13:35:02;15.70;;;8.48;;
53036;SDS011;38924;52.134;4.666;2023-12-04T13:37:30;17.17;;;10.02;;
53036;SDS011;38924;52.134;4.666;2023-12-04T13:39:56;15.27;;;8.63;;
53036;SDS011;38924;52.134;4.666;2023-12-04T13:42:29;17.55;;;9.65;;
53036;SDS011;38924;52.134;4.666;2023-12-04T13:45:13;22.20;;;10.52;;
53036;SDS011;38924;52.134;4.666;2023-12-04T13:47:39;16.92;;;9.57;;
53036;SDS011;38924;52.134;4.666;2023-12-04T13:50:05;17.23;;;9.75;;
53036;SDS011;38924;52.134;4.666;2023-12-04T13:52:31;15.68;;;9.88;;
53036;SDS011;38924;52.134;4.666;2023-12-04T13:54:59;19.75;;;10.00;;
53036;SDS011;38924;52.134;4.666;2023-12-04T13:57:25;24.85;;;9.00;;
53036;SDS011;38924;52.134;4.666;2023-12-04T14:00:17;17.75;;;9.82;;
53036;SDS011;38924;52.134;4.666;2023-12-04T14:02:43;14.32;;;8.50;;
53036;SDS011;38924;52.134;4.666;2023-12-04T14:05:09;18.30;;;9.88;;
53036;SDS011;38924;52.134;4.666;2023-12-04T14:07:34;16.77;;;9.40;;
53036;SDS011;38924;52.134;4.666;2023-12-04T14:10:00;14.32;;;9.65;;
53036;SDS011;38924;52.134;4.666;2023-12-04T14:12:25;16.55;;;9.30;;
53036;SDS011;38924;52.134;4.666;2023-12-04T14:14:51;13.05;;;8.10;;
53036;SDS011;38924;52.134;4.666;2023-12-04T14:17:22;13.95;;;9.48;;
53036;SDS011;38924;52.134;4.666;2023-12-04T14:19:48;15.80;;;9.35;;
53036;SDS011;38924;52.134;4.666;2023-12-04T14:22:13;14.20;;;9.75;;
53036;SDS011;38924;52.134;4.666;2023-12-04T14:24:39;19.15;;;10.60;;
53036;SDS011;38924;52.134;4.666;2023-12-04T14:27:05;16.23;;;9.60;;
53036;SDS011;38924;52.134;4.666;2023-12-04T14:29:31;15.68;;;10.13;;
53036;SDS011;38924;52.134;4.666;2023-12-04T14:31:57;19.20;;;12.05;;
53036;SDS011;38924;52.134;4.666;2023-12-04T14:34:22;16.45;;;9.70;;